createdAt,value
2019-01-21T00:01:28.507Z,-6.10
2019-01-21T00:03:55.197Z,-6.10
2019-01-21T00:06:21.639Z,-6.10
2019-01-21T00:08:48.101Z,-6.20
2019-01-21T00:11:14.791Z,-6.20
2019-01-21T00:13:41.348Z,-6.20
2019-01-21T00:16:08.064Z,-6.20
2019-01-21T00:18:34.779Z,-6.20
2019-01-21T00:21:01.456Z,-6.20
2019-01-21T00:23:28.178Z,-6.10
2019-01-21T00:25:54.940Z,-6.10
2019-01-21T00:28:21.881Z,-6.10
2019-01-21T00:30:48.628Z,-6.10
2019-01-21T00:33:15.092Z,-6.10
2019-01-21T00:35:41.768Z,-6.00
2019-01-21T00:38:08.709Z,-6.00
2019-01-21T00:40:35.159Z,-6.00
2019-01-21T00:43:01.872Z,-6.00
2019-01-21T00:45:28.327Z,-6.00
2019-01-21T00:47:55.327Z,-6.00
2019-01-21T00:50:22.012Z,-6.00
2019-01-21T00:52:48.707Z,-6.10
2019-01-21T00:55:15.400Z,-6.10
2019-01-21T00:57:42.564Z,-6.10
2019-01-21T01:00:13.927Z,-6.10
2019-01-21T01:02:40.870Z,-6.10
2019-01-21T01:05:07.683Z,-6.20
2019-01-21T01:07:34.628Z,-6.20
2019-01-21T01:10:01.309Z,-6.10
2019-01-21T01:12:28.004Z,-6.10
2019-01-21T01:14:54.939Z,-6.20
2019-01-21T01:17:21.388Z,-6.20
2019-01-21T01:19:48.432Z,-6.20
2019-01-21T01:22:14.884Z,-6.20
2019-01-21T01:24:41.572Z,-6.20
2019-01-21T01:27:08.024Z,-6.20
2019-01-21T01:29:34.761Z,-6.30
2019-01-21T01:32:01.464Z,-6.30
2019-01-21T01:34:27.924Z,-6.40
2019-01-21T01:36:54.843Z,-6.40
2019-01-21T01:39:21.596Z,-6.50
2019-01-21T01:41:48.772Z,-6.60
2019-01-21T01:44:15.679Z,-6.60
2019-01-21T01:46:42.696Z,-6.60
2019-01-21T01:49:09.143Z,-6.60
2019-01-21T01:51:36.120Z,-6.60
2019-01-21T01:54:03.023Z,-6.70
2019-01-21T01:56:30.068Z,-6.70
2019-01-21T01:58:56.838Z,-6.70
2019-01-21T02:01:23.723Z,-6.70
2019-01-21T02:03:50.409Z,-6.80
2019-01-21T02:06:17.132Z,-6.80
2019-01-21T02:08:44.037Z,-6.80
2019-01-21T02:11:10.544Z,-6.80
2019-01-21T02:13:37.071Z,-6.80
2019-01-21T02:16:03.552Z,-6.70
2019-01-21T02:18:30.572Z,-6.70
2019-01-21T02:20:57.635Z,-6.70
2019-01-21T02:23:24.568Z,-6.80
2019-01-21T02:25:52.189Z,-6.80
2019-01-21T02:28:21.792Z,-6.90
2019-01-21T02:31:04.653Z,-6.90
2019-01-21T02:34:00.037Z,-6.90
2019-01-21T02:36:30.999Z,-6.90
2019-01-21T02:39:06.832Z,-6.90
2019-01-21T02:41:44.362Z,-6.90
2019-01-21T02:44:18.465Z,-6.90
2019-01-21T02:47:11.138Z,-6.90
2019-01-21T02:49:56.022Z,-6.90
2019-01-21T02:52:39.089Z,-6.90
2019-01-21T02:55:20.479Z,-6.90
2019-01-21T02:57:55.776Z,-6.90
2019-01-21T03:00:26.348Z,-6.90
2019-01-21T03:03:12.756Z,-6.90
2019-01-21T03:05:54.532Z,-6.90
2019-01-21T03:08:32.371Z,-6.90
2019-01-21T03:11:34.180Z,-6.90
2019-01-21T03:14:06.488Z,-6.80
2019-01-21T03:16:43.668Z,-6.90
2019-01-21T03:19:17.061Z,-6.90
2019-01-21T03:21:58.568Z,-6.90
2019-01-21T03:24:44.946Z,-7.00
2019-01-21T03:27:34.524Z,-7.00
2019-01-21T03:30:21.154Z,-7.00
2019-01-21T03:33:01.419Z,-7.00
2019-01-21T03:35:38.461Z,-7.00
2019-01-21T03:38:08.976Z,-7.00
2019-01-21T03:40:48.872Z,-7.00
2019-01-21T03:43:34.332Z,-7.00
2019-01-21T03:46:15.167Z,-7.00
2019-01-21T03:48:53.624Z,-7.10
2019-01-21T03:51:38.556Z,-7.00
2019-01-21T03:54:10.308Z,-7.00
2019-01-21T03:56:45.781Z,-7.00
2019-01-21T03:59:16.623Z,-7.00
2019-01-21T04:01:50.419Z,-7.00
2019-01-21T04:04:42.690Z,-7.00
2019-01-21T04:07:32.492Z,-6.90
2019-01-21T04:10:30.926Z,-6.90
2019-01-21T04:13:02.489Z,-6.90
2019-01-21T04:15:37.568Z,-6.90
2019-01-21T04:18:24.359Z,-6.90
2019-01-21T04:21:23.695Z,-6.90
2019-01-21T04:23:55.044Z,-6.90
2019-01-21T04:26:47.609Z,-6.90
2019-01-21T04:29:25.912Z,-6.80
2019-01-21T04:31:59.477Z,-6.80
2019-01-21T04:35:04.204Z,-6.70
2019-01-21T04:37:50.341Z,-6.70
2019-01-21T04:40:23.440Z,-6.70
2019-01-21T04:43:12.640Z,-6.80
2019-01-21T04:45:46.452Z,-6.80
2019-01-21T04:48:19.541Z,-6.80
2019-01-21T04:51:09.052Z,-6.90
2019-01-21T04:54:10.348Z,-6.90
2019-01-21T04:56:41.051Z,-7.00
2019-01-21T04:59:20.307Z,-7.00
2019-01-21T05:02:21.538Z,-7.00
2019-01-21T05:05:08.019Z,-7.10
2019-01-21T05:07:42.948Z,-7.10
2019-01-21T05:10:27.752Z,-7.10
2019-01-21T05:13:17.369Z,-7.10
2019-01-21T05:15:48.407Z,-7.10
2019-01-21T05:18:40.974Z,-7.10
2019-01-21T05:21:21.486Z,-7.10
2019-01-21T05:23:55.612Z,-7.10
2019-01-21T05:26:45.384Z,-7.10
2019-01-21T05:29:18.425Z,-7.10
2019-01-21T05:32:19.745Z,-7.20
2019-01-21T05:35:00.675Z,-7.30
2019-01-21T05:37:39.864Z,-7.30
2019-01-21T05:40:25.300Z,-7.30
2019-01-21T05:43:14.341Z,-7.40
2019-01-21T05:45:52.017Z,-7.50
2019-01-21T05:48:50.412Z,-7.50
2019-01-21T05:51:52.110Z,-7.40
2019-01-21T05:54:23.792Z,-7.50
2019-01-21T05:57:05.313Z,-7.50
2019-01-21T05:59:44.696Z,-7.50
2019-01-21T06:02:19.939Z,-7.40
2019-01-21T06:05:12.293Z,-7.50
2019-01-21T06:07:46.803Z,-7.50
2019-01-21T06:10:35.720Z,-7.60
2019-01-21T06:13:26.432Z,-7.60
2019-01-21T06:16:11.462Z,-7.60
2019-01-21T06:18:48.665Z,-7.50
2019-01-21T06:21:29.065Z,-7.40
2019-01-21T06:24:18.998Z,-7.40
2019-01-21T06:27:03.880Z,-7.40
2019-01-21T06:29:43.016Z,-7.60
2019-01-21T06:32:15.477Z,-7.70
2019-01-21T06:34:46.300Z,-7.80
2019-01-21T06:37:29.553Z,-7.90
2019-01-21T06:40:18.836Z,-8.00
2019-01-21T06:42:53.359Z,-8.00
2019-01-21T06:45:24.227Z,-8.10
2019-01-21T06:48:09.620Z,-8.10
2019-01-21T06:51:05.171Z,-8.10
2019-01-21T06:53:39.991Z,-8.20
2019-01-21T06:56:11.667Z,-8.20
2019-01-21T06:59:07.280Z,-8.30
2019-01-21T07:01:37.473Z,-8.20
2019-01-21T07:04:22.555Z,-8.20
2019-01-21T07:07:00.883Z,-8.20
2019-01-21T07:09:34.544Z,-8.30
2019-01-21T07:12:05.024Z,-8.50
2019-01-21T07:14:57.013Z,-8.50
2019-01-21T07:17:47.475Z,-8.60
2019-01-21T07:20:25.471Z,-8.60
2019-01-21T07:22:59.732Z,-8.60
2019-01-21T07:25:51.751Z,-8.60
2019-01-21T07:28:38.152Z,-8.40
2019-01-21T07:31:11.984Z,-7.90
2019-01-21T07:33:58.119Z,-7.30
2019-01-21T07:36:50.125Z,-6.90
2019-01-21T07:39:39.552Z,-6.20
2019-01-21T07:42:25.717Z,-5.60
2019-01-21T07:45:04.780Z,-5.10
2019-01-21T07:47:45.704Z,-4.70
2019-01-21T07:50:24.936Z,-4.40
2019-01-21T07:53:07.787Z,-3.70
2019-01-21T07:55:40.208Z,-2.90
2019-01-21T07:58:20.024Z,-2.20
2019-01-21T08:01:08.316Z,-1.40
2019-01-21T08:04:00.491Z,-0.60
2019-01-21T08:06:34.280Z,-0.10
2019-01-21T08:09:29.501Z,-0.10
2019-01-21T08:12:18.640Z,0.20
2019-01-21T08:14:52.044Z,1.00
2019-01-21T08:17:37.225Z,1.80
2019-01-21T08:20:26.631Z,2.40
2019-01-21T08:23:00.290Z,2.80
2019-01-21T08:25:52.468Z,3.20
2019-01-21T08:28:37.271Z,3.70
2019-01-21T08:31:15.246Z,4.10
2019-01-21T08:33:46.464Z,4.40
2019-01-21T08:36:24.088Z,4.60
2019-01-21T08:39:10.228Z,5.00
2019-01-21T08:41:49.657Z,5.40
2019-01-21T08:44:29.260Z,5.80
2019-01-21T08:46:59.724Z,6.30
2019-01-21T08:49:46.084Z,6.10
2019-01-21T08:52:27.160Z,6.50
2019-01-21T08:55:22.575Z,6.90
2019-01-21T08:58:05.252Z,7.50
2019-01-21T09:00:51.659Z,8.10
2019-01-21T09:03:26.204Z,8.50
2019-01-21T09:05:57.625Z,8.80
2019-01-21T09:08:42.695Z,9.10
2019-01-21T09:11:31.580Z,9.50
2019-01-21T09:14:01.528Z,10.00
2019-01-21T09:16:39.200Z,10.70
2019-01-21T09:19:28.821Z,11.00
2019-01-21T09:22:18.519Z,10.80
2019-01-21T09:25:10.796Z,10.60
2019-01-21T09:27:43.976Z,10.50
2019-01-21T09:30:36.480Z,10.10
2019-01-21T09:33:09.795Z,9.70
2019-01-21T09:35:54.820Z,9.40
2019-01-21T12:05:52.856Z,4.70
2019-01-21T12:15:36.524Z,5.00
2019-01-21T13:10:41.416Z,3.90
2019-01-21T13:28:17.076Z,2.80
2019-01-21T13:35:05.832Z,3.00
2019-01-21T13:38:18.427Z,3.00
2019-01-21T14:20:43.672Z,0.30
2019-01-21T14:53:22.559Z,-1.90
2019-01-21T15:08:40.925Z,-2.40
2019-01-21T15:11:11.832Z,-2.40
2019-01-21T15:13:41.716Z,-2.40
2019-01-21T15:16:40.057Z,-2.30
2019-01-21T15:19:08.719Z,-2.40
2019-01-21T15:21:42.262Z,-2.50
2019-01-21T15:24:13.989Z,-2.70
2019-01-21T15:26:48.128Z,-2.80
2019-01-21T15:29:34.980Z,-2.80
2019-01-21T15:32:27.314Z,-2.80
2019-01-21T15:35:07.771Z,-2.90
2019-01-21T15:37:39.315Z,-3.10
2019-01-21T15:40:14.354Z,-3.10
2019-01-21T15:42:46.843Z,-3.20
2019-01-21T15:45:31.739Z,-3.30
2019-01-21T15:48:27.328Z,-3.40
2019-01-21T15:51:05.217Z,-3.50
2019-01-21T15:53:41.952Z,-3.50
2019-01-21T15:56:15.812Z,-3.60
2019-01-21T15:59:04.744Z,-3.60
2019-01-21T16:01:48.925Z,-3.70
2019-01-21T16:04:20.508Z,-3.70
2019-01-21T16:07:16.936Z,-3.80
2019-01-21T16:10:01.732Z,-3.80
2019-01-21T16:12:59.852Z,-3.90
2019-01-21T16:15:38.048Z,-4.00
2019-01-21T16:18:19.246Z,-4.00
2019-01-21T16:20:54.712Z,-4.10
2019-01-21T16:23:40.884Z,-4.20
2019-01-21T16:26:12.122Z,-4.20
2019-01-21T16:29:04.808Z,-4.20
2019-01-21T16:31:33.689Z,-4.30
2019-01-21T16:34:18.625Z,-4.30
2019-01-21T16:36:56.899Z,-4.30
2019-01-21T16:39:35.695Z,-4.40
2019-01-21T16:42:14.647Z,-4.40
2019-01-21T16:44:41.604Z,-4.40
2019-01-21T16:47:08.040Z,-4.40
2019-01-21T16:49:35.025Z,-4.50
2019-01-21T16:52:01.724Z,-4.50
2019-01-21T16:54:28.216Z,-4.50
2019-01-21T16:56:55.142Z,-4.60
2019-01-21T16:59:22.147Z,-4.60
2019-01-21T17:01:48.593Z,-4.60
2019-01-21T17:04:15.643Z,-4.60
2019-01-21T17:06:42.572Z,-4.60
2019-01-21T17:09:09.464Z,-4.70
2019-01-21T17:11:36.392Z,-4.70
2019-01-21T17:14:02.883Z,-4.70
2019-01-21T17:16:29.556Z,-4.80
2019-01-21T17:18:56.299Z,-4.80
2019-01-21T17:21:26.993Z,-4.80
2019-01-21T17:23:51.392Z,-4.80
2019-01-21T17:26:18.329Z,-4.80
2019-01-21T17:28:44.820Z,-4.90
2019-01-21T17:31:11.276Z,-4.90
2019-01-21T17:33:37.765Z,-5.00
2019-01-21T17:36:04.215Z,-5.00
2019-01-21T17:38:30.948Z,-5.00
2019-01-21T17:40:57.631Z,-5.10
2019-01-21T17:43:24.856Z,-5.10
2019-01-21T17:45:52.223Z,-5.10
2019-01-21T17:48:19.200Z,-5.20
2019-01-21T17:50:45.903Z,-5.20
2019-01-21T17:53:12.903Z,-5.20
2019-01-21T17:55:39.344Z,-5.20
2019-01-21T17:58:05.795Z,-5.20
2019-01-21T18:00:32.292Z,-5.20
2019-01-21T18:02:59.224Z,-5.20
2019-01-21T18:05:25.960Z,-5.20
2019-01-21T18:07:52.665Z,-5.20
2019-01-21T18:10:19.391Z,-5.20
2019-01-21T18:12:45.844Z,-5.20
2019-01-21T18:15:12.822Z,-5.10
2019-01-21T18:17:39.506Z,-5.20
2019-01-21T18:20:07.988Z,-5.30
2019-01-21T18:22:34.684Z,-5.30
2019-01-21T18:25:01.404Z,-5.40
2019-01-21T18:27:28.088Z,-5.40
2019-01-21T18:29:54.579Z,-5.40
2019-01-21T18:32:21.279Z,-5.50
2019-01-21T18:34:47.769Z,-5.50
2019-01-21T18:37:14.648Z,-5.50
2019-01-21T18:39:41.388Z,-5.60
2019-01-21T18:42:08.167Z,-5.60
2019-01-21T18:44:34.913Z,-5.70
2019-01-21T18:47:01.656Z,-5.70
2019-01-21T18:49:28.151Z,-5.70
2019-01-21T18:51:54.595Z,-5.70
2019-01-21T18:54:21.342Z,-5.70
2019-01-21T18:56:47.784Z,-5.80
2019-01-21T18:59:14.519Z,-5.80
2019-01-21T19:01:41.216Z,-5.80
2019-01-21T19:04:08.257Z,-5.80
2019-01-21T19:06:34.708Z,-5.80
2019-01-21T19:09:01.701Z,-5.90
2019-01-21T19:11:28.376Z,-5.90
2019-01-21T19:13:55.072Z,-6.00
2019-01-21T19:16:22.043Z,-6.00
2019-01-21T19:18:48.491Z,-6.10
2019-01-21T19:21:15.219Z,-6.10
2019-01-21T19:23:41.913Z,-6.10
2019-01-21T19:26:08.660Z,-6.10
2019-01-21T19:28:35.104Z,-6.00
2019-01-21T19:31:01.844Z,-6.10
2019-01-21T19:33:28.763Z,-6.10
2019-01-21T19:35:55.736Z,-6.10
2019-01-21T19:38:22.190Z,-6.10
2019-01-21T19:40:48.924Z,-6.10
2019-01-21T19:43:15.368Z,-6.10
2019-01-21T19:45:43.264Z,-6.10
2019-01-21T19:48:10.117Z,-6.10
2019-01-21T19:50:36.612Z,-6.00
2019-01-21T19:53:03.059Z,-6.00
2019-01-21T19:55:31.364Z,-6.10
2019-01-21T19:57:58.287Z,-6.00
2019-01-21T20:00:24.780Z,-6.00
2019-01-21T20:02:51.715Z,-6.00
2019-01-21T20:05:18.207Z,-6.00
2019-01-21T20:07:44.653Z,-6.00
2019-01-21T20:10:12.450Z,-6.00
2019-01-21T20:12:38.896Z,-6.00
2019-01-21T20:15:06.011Z,-6.00
2019-01-21T20:17:32.465Z,-6.00
2019-01-21T20:19:59.212Z,-5.90
2019-01-21T20:22:25.911Z,-5.90
2019-01-21T20:24:52.589Z,-5.90
2019-01-21T20:27:19.332Z,-5.90
2019-01-21T20:29:45.784Z,-5.90
2019-01-21T20:32:12.988Z,-5.90
2019-01-21T20:34:39.656Z,-5.90
2019-01-21T20:37:06.151Z,-6.00
2019-01-21T20:39:32.600Z,-6.00
2019-01-21T20:41:59.568Z,-6.00
2019-01-21T20:44:26.012Z,-6.00
2019-01-21T20:46:52.794Z,-6.10
2019-01-21T20:49:19.492Z,-6.10
2019-01-21T20:51:45.993Z,-6.20
2019-01-21T20:54:12.688Z,-6.20
2019-01-21T20:56:39.660Z,-6.20
2019-01-21T20:59:06.113Z,-6.20
2019-01-21T21:01:33.084Z,-6.30
2019-01-21T21:03:59.759Z,-6.40
2019-01-21T21:06:26.496Z,-6.40
2019-01-21T21:08:52.971Z,-6.50
2019-01-21T21:11:19.783Z,-6.50
2019-01-21T21:13:46.456Z,-6.50
2019-01-21T21:16:13.195Z,-6.60
2019-01-21T21:18:40.126Z,-6.60
2019-01-21T21:21:06.619Z,-6.60
2019-01-21T21:23:33.055Z,-6.60
2019-01-21T21:26:00.015Z,-6.70
2019-01-21T21:28:29.787Z,-6.70
2019-01-21T21:30:55.111Z,-6.70
2019-01-21T21:33:22.032Z,-6.70
2019-01-21T21:35:49.046Z,-6.80
2019-01-21T21:38:16.031Z,-6.80
2019-01-21T21:40:42.708Z,-6.80
2019-01-21T21:43:09.457Z,-6.80
2019-01-21T21:45:36.497Z,-6.80
2019-01-21T21:48:03.105Z,-6.80
2019-01-21T21:50:30.384Z,-6.80
2019-01-21T21:52:57.174Z,-6.80
2019-01-21T21:55:24.203Z,-6.80
2019-01-21T21:57:50.684Z,-6.80
2019-01-21T22:00:18.400Z,-6.80
2019-01-21T22:02:44.992Z,-6.80
2019-01-21T22:05:11.740Z,-6.80
2019-01-21T22:07:38.805Z,-6.80
2019-01-21T22:10:07.164Z,-6.80
2019-01-21T22:12:33.889Z,-6.80
2019-01-21T22:15:00.636Z,-6.80
2019-01-21T22:17:27.111Z,-6.80
2019-01-21T22:19:53.555Z,-6.90
2019-01-21T22:22:20.032Z,-6.90
2019-01-21T22:24:46.480Z,-6.90
2019-01-21T22:27:13.272Z,-7.00
2019-01-21T22:29:40.051Z,-7.00
2019-01-21T22:32:06.967Z,-7.00
2019-01-21T22:34:33.667Z,-7.00
2019-01-21T22:37:00.238Z,-7.00
2019-01-21T22:39:26.930Z,-7.10
2019-01-21T22:41:53.723Z,-7.10
2019-01-21T22:44:20.272Z,-7.10
2019-01-21T22:46:47.154Z,-7.10
2019-01-21T22:49:13.927Z,-7.10
2019-01-21T22:51:40.646Z,-7.10
2019-01-21T22:54:07.446Z,-7.00
2019-01-21T22:56:34.000Z,-6.90
2019-01-21T22:59:00.716Z,-6.90
2019-01-21T23:01:28.260Z,-6.90
2019-01-21T23:03:55.087Z,-6.90
2019-01-21T23:06:21.642Z,-6.90
2019-01-21T23:08:48.199Z,-7.00
2019-01-21T23:11:14.980Z,-7.00
2019-01-21T23:13:41.924Z,-7.00
2019-01-21T23:16:08.624Z,-7.10
2019-01-21T23:18:35.304Z,-7.00
2019-01-21T23:21:02.009Z,-7.00
2019-01-21T23:23:28.703Z,-7.00
2019-01-21T23:25:55.161Z,-7.00
2019-01-21T23:28:21.739Z,-6.90
2019-01-21T23:30:48.499Z,-6.90
2019-01-21T23:33:15.775Z,-7.00
2019-01-21T23:35:42.806Z,-6.90
2019-01-21T23:38:09.621Z,-7.00
2019-01-21T23:40:36.563Z,-6.90
2019-01-21T23:43:03.128Z,-6.90
2019-01-21T23:45:29.805Z,-6.90
2019-01-21T23:47:56.369Z,-7.00
2019-01-21T23:50:23.131Z,-7.00
2019-01-21T23:52:55.765Z,-7.00
2019-01-21T23:55:18.415Z,-7.00
2019-01-21T23:57:44.882Z,-7.10
